Time;durP1;ratioP1;P1;durP2;ratioP2;P2;SDS_P1;SDS_P2;PMS_P1;PMS_P2;Temp;Humidity;BMP_temperature;BMP_pressure;BME280_temperature;BME280_humidity;BME280_pressure;Samples;Min_cycle;Max_cycle;Signal;HPM_P1;HPM_P2
2023/07/24 00:00:43;;;;;;;12.90;5.90;;;;;;;-128.00;-1.00;-1.00;106571;1253;1013594;-70
2023/07/24 00:03:32;;;;;;;12.70;6.20;;;;;;;-128.00;-1.00;-1.00;106772;1253;1011099;-70
2023/07/24 00:06:19;;;;;;;12.00;5.90;;;;;;;-128.00;-1.00;-1.00;106572;1253;1011044;-70
2023/07/24 00:09:06;;;;;;;13.80;6.50;;;;;;;-128.00;-1.00;-1.00;106657;1253;1012793;-69
2023/07/24 00:11:53;;;;;;;13.80;5.60;;;;;;;-128.00;-1.00;-1.00;106717;1253;1011850;-70
2023/07/24 00:14:39;;;;;;;13.40;5.60;;;;;;;-128.00;-1.00;-1.00;106598;1253;1012517;-69
2023/07/24 00:17:26;;;;;;;11.50;5.80;;;;;;;-128.00;-1.00;-1.00;106580;1253;1009338;-69
2023/07/24 00:20:13;;;;;;;12.40;5.80;;;;;;;-128.00;-1.00;-1.00;106608;1253;1010930;-69
2023/07/24 00:22:59;;;;;;;11.60;5.20;;;;;;;-128.00;-1.00;-1.00;106585;1256;1012532;-71
2023/07/24 00:25:46;;;;;;;9.30;4.50;;;;;;;-128.00;-1.00;-1.00;106702;1254;1013184;-70
2023/07/24 00:28:35;;;;;;;10.20;5.20;;;;;;;-128.00;-1.00;-1.00;106486;1257;1012271;-69
2023/07/24 00:31:21;;;;;;;9.60;5.20;;;;;;;-128.00;-1.00;-1.00;106655;1255;1009483;-70
2023/07/24 00:34:08;;;;;;;12.30;5.50;;;;;;;-128.00;-1.00;-1.00;106853;1253;1011396;-71
2023/07/24 00:36:55;;;;;;;12.60;5.50;;;;;;;-128.00;-1.00;-1.00;106628;1252;1012856;-69
2023/07/24 00:39:43;;;;;;;12.50;5.70;;;;;;;-128.00;-1.00;-1.00;106666;1253;1012972;-69
2023/07/24 00:42:30;;;;;;;12.30;5.50;;;;;;;-128.00;-1.00;-1.00;106715;1253;1013331;-70
2023/07/24 00:45:17;;;;;;;11.50;5.80;;;;;;;-128.00;-1.00;-1.00;106713;1253;1010550;-69
2023/07/24 00:48:04;;;;;;;10.50;5.10;;;;;;;-128.00;-1.00;-1.00;106549;1253;1011599;-71
2023/07/24 00:50:51;;;;;;;12.00;5.10;;;;;;;-128.00;-1.00;-1.00;106628;1254;1012814;-72
2023/07/24 00:53:38;;;;;;;13.10;5.50;;;;;;;-128.00;-1.00;-1.00;106683;1253;1012572;-70
2023/07/24 00:56:27;;;;;;;11.70;6.20;;;;;;;-128.00;-1.00;-1.00;106792;1253;1013719;-70
2023/07/24 00:59:16;;;;;;;13.50;6.10;;;;;;;-128.00;-1.00;-1.00;106615;1253;1010038;-70
2023/07/24 01:02:02;;;;;;;11.10;5.60;;;;;;;-128.00;-1.00;-1.00;106677;1257;1011470;-68
2023/07/24 01:04:49;;;;;;;11.30;5.30;;;;;;;-128.00;-1.00;-1.00;106638;1253;1012823;-69
2023/07/24 01:07:37;;;;;;;12.80;5.60;;;;;;;-128.00;-1.00;-1.00;106706;1253;1012721;-70
2023/07/24 01:10:24;;;;;;;11.60;5.20;;;;;;;-128.00;-1.00;-1.00;106882;1254;1013008;-70
2023/07/24 01:13:24;;;;;;;12.30;5.20;;;;;;;-128.00;-1.00;-1.00;106549;1254;1010775;-69
2023/07/24 01:16:18;;;;;;;11.10;5.80;;;;;;;-128.00;-1.00;-1.00;106580;1254;1011646;-72
2023/07/24 01:19:32;;;;;;;10.50;5.70;;;;;;;-128.00;-1.00;-1.00;106655;1253;1012714;-70
2023/07/24 01:22:35;;;;;;;12.10;6.00;;;;;;;-128.00;-1.00;-1.00;106682;1253;1012110;-70
2023/07/24 01:25:35;;;;;;;11.30;5.60;;;;;;;-128.00;-1.00;-1.00;106704;1253;1012298;-69
2023/07/24 01:28:22;;;;;;;11.60;5.80;;;;;;;-128.00;-1.00;-1.00;106689;1253;1010441;-71
2023/07/24 01:31:09;;;;;;;12.80;5.80;;;;;;;-128.00;-1.00;-1.00;106593;1255;1010877;-69
2023/07/24 01:33:56;;;;;;;11.20;5.60;;;;;;;-128.00;-1.00;-1.00;106606;1254;1012282;-69
2023/07/24 01:36:44;;;;;;;14.60;6.30;;;;;;;-128.00;-1.00;-1.00;106672;1253;1012394;-69
2023/07/24 01:39:35;;;;;;;13.10;5.90;;;;;;;-128.00;-1.00;-1.00;106722;1253;1013278;-72
2023/07/24 01:42:21;;;;;;;11.60;5.90;;;;;;;-128.00;-1.00;-1.00;106807;1253;1009776;-70
2023/07/24 01:45:08;;;;;;;12.50;5.60;;;;;;;-128.00;-1.00;-1.00;106875;1253;1011855;-69
2023/07/24 01:47:55;;;;;;;13.90;5.60;;;;;;;-128.00;-1.00;-1.00;106675;1253;1012728;-68
2023/07/24 01:50:42;;;;;;;12.50;5.30;;;;;;;-128.00;-1.00;-1.00;106759;1257;1012618;-70
2023/07/24 01:53:28;;;;;;;14.20;5.70;;;;;;;-128.00;-1.00;-1.00;106536;1253;1012570;-69
2023/07/24 01:56:15;;;;;;;10.90;5.80;;;;;;;-128.00;-1.00;-1.00;106665;1253;1009763;-69
2023/07/24 01:59:02;;;;;;;12.70;5.50;;;;;;;-128.00;-1.00;-1.00;106636;1253;1011045;-71
2023/07/24 02:01:49;;;;;;;11.50;6.00;;;;;;;-128.00;-1.00;-1.00;106505;1253;1013363;-68
2023/07/24 02:04:36;;;;;;;12.90;6.00;;;;;;;-128.00;-1.00;-1.00;106535;1253;1012684;-68
2023/07/24 02:07:23;;;;;;;12.80;5.50;;;;;;;-128.00;-1.00;-1.00;106635;1253;1012597;-68
2023/07/24 02:10:09;;;;;;;12.60;6.20;;;;;;;-128.00;-1.00;-1.00;106747;1253;1009396;-72
2023/07/24 02:12:56;;;;;;;12.50;5.80;;;;;;;-128.00;-1.00;-1.00;106630;1253;1011211;-69
2023/07/24 02:15:42;;;;;;;12.70;6.00;;;;;;;-128.00;-1.00;-1.00;106498;1255;1012940;-69
2023/07/24 02:18:31;;;;;;;13.20;6.50;;;;;;;-128.00;-1.00;-1.00;106738;1253;1013375;-68
2023/07/24 02:21:17;;;;;;;13.60;5.90;;;;;;;-128.00;-1.00;-1.00;106791;1254;1013561;-68
2023/07/24 02:24:06;;;;;;;11.90;5.90;;;;;;;-128.00;-1.00;-1.00;106696;1253;1009812;-68
2023/07/24 02:26:53;;;;;;;11.90;6.00;;;;;;;-128.00;-1.00;-1.00;106671;1253;1011612;-68
2023/07/24 02:29:39;;;;;;;12.60;6.00;;;;;;;-128.00;-1.00;-1.00;106844;1253;1013046;-68
2023/07/24 02:32:26;;;;;;;12.10;5.60;;;;;;;-128.00;-1.00;-1.00;106634;1253;1012598;-69
2023/07/24 02:35:13;;;;;;;12.00;6.10;;;;;;;-128.00;-1.00;-1.00;106901;1253;1013080;-67
2023/07/24 02:38:00;;;;;;;13.50;6.00;;;;;;;-128.00;-1.00;-1.00;106693;1253;1010487;-68
2023/07/24 02:40:49;;;;;;;12.80;6.50;;;;;;;-128.00;-1.00;-1.00;106693;1253;1010760;-68
2023/07/24 02:43:36;;;;;;;12.20;6.70;;;;;;;-128.00;-1.00;-1.00;106527;1253;1012821;-66
2023/07/24 02:46:24;;;;;;;12.00;5.60;;;;;;;-128.00;-1.00;-1.00;106610;1257;1011659;-68
2023/07/24 02:49:10;;;;;;;13.10;6.40;;;;;;;-128.00;-1.00;-1.00;106530;1254;1012015;-68
2023/07/24 02:51:57;;;;;;;11.70;5.40;;;;;;;-128.00;-1.00;-1.00;106640;1254;1009679;-69
2023/07/24 02:54:43;;;;;;;11.90;6.30;;;;;;;-128.00;-1.00;-1.00;106581;1254;1011207;-70
2023/07/24 02:57:30;;;;;;;11.30;6.00;;;;;;;-128.00;-1.00;-1.00;106791;1257;1013581;-68
2023/07/24 03:00:16;;;;;;;14.00;6.70;;;;;;;-128.00;-1.00;-1.00;106844;1254;1012406;-67
2023/07/24 03:03:04;;;;;;;14.80;7.20;;;;;;;-128.00;-1.00;-1.00;106887;1253;1012779;-70
2023/07/24 03:05:52;;;;;;;11.60;6.30;;;;;;;-128.00;-1.00;-1.00;106750;1253;1009808;-69
2023/07/24 03:08:41;;;;;;;11.80;5.90;;;;;;;-128.00;-1.00;-1.00;106754;1259;1010860;-68
2023/07/24 03:11:30;;;;;;;12.80;6.50;;;;;;;-128.00;-1.00;-1.00;106776;1253;1012934;-70
2023/07/24 03:14:16;;;;;;;11.70;6.40;;;;;;;-128.00;-1.00;-1.00;106714;1255;1013212;-68
2023/07/24 03:17:03;;;;;;;12.00;5.90;;;;;;;-128.00;-1.00;-1.00;106779;1254;1012824;-70
2023/07/24 03:19:50;;;;;;;12.80;6.20;;;;;;;-128.00;-1.00;-1.00;106664;1253;1009719;-70
2023/07/24 03:22:37;;;;;;;10.20;5.30;;;;;;;-128.00;-1.00;-1.00;106671;1253;1011072;-68
2023/07/24 03:25:26;;;;;;;13.20;6.10;;;;;;;-128.00;-1.00;-1.00;106770;1253;1012714;-70
2023/07/24 03:28:26;;;;;;;12.30;6.30;;;;;;;-128.00;-1.00;-1.00;106575;1262;1012787;-68
2023/07/24 03:31:14;;;;;;;13.20;6.50;;;;;;;-128.00;-1.00;-1.00;106704;1254;1012700;-68
2023/07/24 03:34:01;;;;;;;13.00;6.20;;;;;;;-128.00;-1.00;-1.00;106617;1253;1010005;-70
2023/07/24 03:36:48;;;;;;;12.40;6.20;;;;;;;-128.00;-1.00;-1.00;106500;1254;1011167;-70
2023/07/24 03:39:35;;;;;;;10.00;5.30;;;;;;;-128.00;-1.00;-1.00;106615;1262;1012485;-71
2023/07/24 03:42:27;;;;;;;11.20;5.90;;;;;;;-128.00;-1.00;-1.00;106726;1253;1013666;-69
2023/07/24 03:45:13;;;;;;;11.60;5.80;;;;;;;-128.00;-1.00;-1.00;106612;1253;1013264;-70
2023/07/24 03:48:00;;;;;;;15.90;6.80;;;;;;;-128.00;-1.00;-1.00;106605;1253;1010585;-69
2023/07/24 03:50:47;;;;;;;12.40;6.00;;;;;;;-128.00;-1.00;-1.00;106919;1253;1011056;-71
2023/07/24 03:53:35;;;;;;;12.80;6.10;;;;;;;-128.00;-1.00;-1.00;106686;1253;1012733;-72
2023/07/24 03:56:21;;;;;;;11.90;6.20;;;;;;;-128.00;-1.00;-1.00;106606;1253;1012342;-70
2023/07/24 03:59:08;;;;;;;13.30;6.20;;;;;;;-128.00;-1.00;-1.00;106617;1254;1013526;-72
2023/07/24 04:01:55;;;;;;;12.40;5.60;;;;;;;-128.00;-1.00;-1.00;106485;1254;1009692;-72
2023/07/24 04:04:42;;;;;;;13.90;6.40;;;;;;;-128.00;-1.00;-1.00;106617;1254;1010871;-72
2023/07/24 04:07:28;;;;;;;11.10;5.20;;;;;;;-128.00;-1.00;-1.00;106702;1254;1013046;-70
2023/07/24 04:10:15;;;;;;;11.80;5.90;;;;;;;-128.00;-1.00;-1.00;106551;1260;1012511;-73
2023/07/24 04:13:18;;;;;;;13.10;6.30;;;;;;;-128.00;-1.00;-1.00;106654;1253;1012564;-72
2023/07/24 04:16:10;;;;;;;10.80;5.40;;;;;;;-128.00;-1.00;-1.00;106454;1259;1010402;-72
2023/07/24 04:18:57;;;;;;;12.80;6.20;;;;;;;-128.00;-1.00;-1.00;106670;1254;1010893;-71
2023/07/24 04:21:44;;;;;;;11.60;5.70;;;;;;;-128.00;-1.00;-1.00;106768;1254;1013461;-70
2023/07/24 04:24:30;;;;;;;12.10;5.50;;;;;;;-128.00;-1.00;-1.00;106838;1256;1013160;-71
2023/07/24 04:27:17;;;;;;;12.60;5.80;;;;;;;-128.00;-1.00;-1.00;106747;1253;1012298;-72
2023/07/24 04:30:04;;;;;;;11.20;5.10;;;;;;;-128.00;-1.00;-1.00;106637;1253;1009542;-75
2023/07/24 04:32:52;;;;;;;10.80;5.80;;;;;;;-128.00;-1.00;-1.00;106569;1253;1011089;-71
2023/07/24 04:35:38;;;;;;;11.20;5.70;;;;;;;-128.00;-1.00;-1.00;106654;1254;1012768;-71
2023/07/24 04:38:26;;;;;;;9.90;5.70;;;;;;;-128.00;-1.00;-1.00;106706;1253;1012866;-71
2023/07/24 04:41:13;;;;;;;11.10;5.30;;;;;;;-128.00;-1.00;-1.00;106894;1253;1013589;-70
2023/07/24 04:44:00;;;;;;;12.50;6.60;;;;;;;-128.00;-1.00;-1.00;106674;1254;1009609;-71
2023/07/24 04:46:50;;;;;;;11.10;6.30;;;;;;;-128.00;-1.00;-1.00;106746;1253;1010392;-72
2023/07/24 04:49:36;;;;;;;11.70;5.20;;;;;;;-128.00;-1.00;-1.00;106418;1254;1012404;-71
2023/07/24 04:52:23;;;;;;;10.60;5.70;;;;;;;-128.00;-1.00;-1.00;106637;1253;1012408;-70
2023/07/24 04:55:11;;;;;;;12.70;5.30;;;;;;;-128.00;-1.00;-1.00;106585;1253;1012331;-73
2023/07/24 04:57:58;;;;;;;11.50;5.30;;;;;;;-128.00;-1.00;-1.00;106827;1254;1009795;-71
2023/07/24 05:00:44;;;;;;;11.70;5.70;;;;;;;-128.00;-1.00;-1.00;106551;1253;1011518;-70
2023/07/24 05:03:38;;;;;;;11.20;5.50;;;;;;;-128.00;-1.00;-1.00;106692;1253;1012124;-73
2023/07/24 05:06:24;;;;;;;11.20;5.90;;;;;;;-128.00;-1.00;-1.00;106580;1254;1012511;-75
2023/07/24 05:09:12;;;;;;;10.60;5.30;;;;;;;-128.00;-1.00;-1.00;106622;1254;1013392;-72
2023/07/24 05:11:59;;;;;;;12.90;5.60;;;;;;;-128.00;-1.00;-1.00;106327;1259;1009646;-73
2023/07/24 05:14:46;;;;;;;11.90;5.60;;;;;;;-128.00;-1.00;-1.00;106354;1259;1012509;-72
2023/07/24 05:17:33;;;;;;;10.10;5.10;;;;;;;-128.00;-1.00;-1.00;106377;1261;1012472;-73
2023/07/24 05:20:20;;;;;;;9.40;4.90;;;;;;;-128.00;-1.00;-1.00;106393;1258;1011915;-73
2023/07/24 05:23:07;;;;;;;11.30;4.90;;;;;;;-128.00;-1.00;-1.00;106177;1260;1012556;-74
2023/07/24 05:26:00;;;;;;;11.00;5.10;;;;;;;-128.00;-1.00;-1.00;106165;1262;1009705;-71
2023/07/24 05:28:48;;;;;;;9.70;4.80;;;;;;;-128.00;-1.00;-1.00;106202;1260;1011298;-73
2023/07/24 05:31:36;;;;;;;11.00;5.00;;;;;;;-128.00;-1.00;-1.00;106163;1261;1012421;-74
2023/07/24 05:34:25;;;;;;;11.90;4.90;;;;;;;-128.00;-1.00;-1.00;106262;1260;1013219;-76
2023/07/24 05:37:16;;;;;;;10.60;4.60;;;;;;;-128.00;-1.00;-1.00;106121;1261;1012595;-73
2023/07/24 05:40:05;;;;;;;9.60;5.00;;;;;;;-128.00;-1.00;-1.00;106176;1260;1010299;-70
2023/07/24 05:42:52;;;;;;;10.90;4.90;;;;;;;-128.00;-1.00;-1.00;106291;1257;1010457;-68
2023/07/24 05:45:40;;;;;;;10.40;5.30;;;;;;;-128.00;-1.00;-1.00;106398;1257;1012898;-69
2023/07/24 05:48:29;;;;;;;10.10;4.70;;;;;;;-128.00;-1.00;-1.00;106416;1257;1012308;-71
2023/07/24 05:51:17;;;;;;;9.80;4.30;;;;;;;-128.00;-1.00;-1.00;106363;1256;1012822;-69
2023/07/24 05:54:03;;;;;;;9.50;4.50;;;;;;;-128.00;-1.00;-1.00;106540;1254;1009747;-67
2023/07/24 05:56:53;;;;;;;10.40;4.50;;;;;;;-128.00;-1.00;-1.00;106769;1253;1011568;-68
2023/07/24 05:59:40;;;;;;;8.90;4.40;;;;;;;-128.00;-1.00;-1.00;106578;1254;1012426;-70
2023/07/24 06:02:28;;;;;;;9.70;4.20;;;;;;;-128.00;-1.00;-1.00;106574;1253;1012654;-69
2023/07/24 06:05:14;;;;;;;8.10;4.20;;;;;;;-128.00;-1.00;-1.00;106627;1254;1013201;-71
2023/07/24 06:08:01;;;;;;;9.80;3.90;;;;;;;-128.00;-1.00;-1.00;106594;1255;1009269;-69
2023/07/24 06:10:50;;;;;;;8.40;3.90;;;;;;;-128.00;-1.00;-1.00;106684;1254;1011102;-69
2023/07/24 06:13:38;;;;;;;9.20;4.00;;;;;;;-128.00;-1.00;-1.00;106660;1254;1013366;-69
2023/07/24 06:16:24;;;;;;;9.00;3.80;;;;;;;-128.00;-1.00;-1.00;106832;1258;1012342;-69
2023/07/24 06:19:11;;;;;;;8.70;4.00;;;;;;;-128.00;-1.00;-1.00;106845;1254;1012774;-67
2023/07/24 06:21:58;;;;;;;8.90;4.00;;;;;;;-128.00;-1.00;-1.00;106668;1254;1010267;-68
2023/07/24 06:24:46;;;;;;;8.50;3.90;;;;;;;-128.00;-1.00;-1.00;106890;1256;1010850;-71
2023/07/24 06:27:34;;;;;;;8.30;3.50;;;;;;;-128.00;-1.00;-1.00;106560;1255;1013343;-70
2023/07/24 06:30:22;;;;;;;8.20;3.30;;;;;;;-128.00;-1.00;-1.00;106462;1254;1012414;-71
2023/07/24 06:33:10;;;;;;;8.90;3.70;;;;;;;-128.00;-1.00;-1.00;106476;1252;1012878;-72
2023/07/24 06:35:58;;;;;;;8.20;3.40;;;;;;;-128.00;-1.00;-1.00;106629;1254;1009102;-72
2023/07/24 06:38:47;;;;;;;10.40;4.10;;;;;;;-128.00;-1.00;-1.00;106663;1254;1011056;-68
2023/07/24 06:41:34;;;;;;;8.40;3.70;;;;;;;-128.00;-1.00;-1.00;106359;1253;1014077;-72
2023/07/24 06:44:21;;;;;;;8.80;4.00;;;;;;;-128.00;-1.00;-1.00;106578;1253;1011864;-69
2023/07/24 06:47:09;;;;;;;8.70;3.70;;;;;;;-128.00;-1.00;-1.00;106623;1254;1013262;-69
2023/07/24 06:49:57;;;;;;;7.80;3.20;;;;;;;-128.00;-1.00;-1.00;106562;1253;1010190;-70
2023/07/24 06:52:44;;;;;;;9.80;3.70;;;;;;;-128.00;-1.00;-1.00;106565;1254;1011682;-74
2023/07/24 06:55:32;;;;;;;8.60;3.40;;;;;;;-128.00;-1.00;-1.00;106598;1254;1013148;-72
2023/07/24 06:58:19;;;;;;;9.70;4.00;;;;;;;-128.00;-1.00;-1.00;106562;1254;1012092;-71
2023/07/24 07:01:07;;;;;;;8.90;3.30;;;;;;;-128.00;-1.00;-1.00;106735;1252;1013273;-73
2023/07/24 07:03:53;;;;;;;9.90;3.30;;;;;;;-128.00;-1.00;-1.00;106888;1253;1008848;-75
2023/07/24 07:06:40;;;;;;;11.00;3.80;;;;;;;-128.00;-1.00;-1.00;106630;1253;1011080;-74
2023/07/24 07:09:27;;;;;;;8.10;3.50;;;;;;;-128.00;-1.00;-1.00;106544;1254;1013515;-72
2023/07/24 07:12:13;;;;;;;9.50;3.50;;;;;;;-128.00;-1.00;-1.00;106625;1254;1013425;-74
2023/07/24 07:15:00;;;;;;;9.00;3.80;;;;;;;-128.00;-1.00;-1.00;106722;1254;1012986;-73
2023/07/24 07:17:46;;;;;;;9.80;3.60;;;;;;;-128.00;-1.00;-1.00;106668;1253;1010601;-74
2023/07/24 07:20:33;;;;;;;8.10;3.30;;;;;;;-128.00;-1.00;-1.00;106652;1253;1010699;-72
2023/07/24 07:23:20;;;;;;;9.00;3.30;;;;;;;-128.00;-1.00;-1.00;106819;1254;1012736;-71
2023/07/24 07:26:07;;;;;;;9.10;3.60;;;;;;;-128.00;-1.00;-1.00;106625;1257;1011908;-72
2023/07/24 07:28:55;;;;;;;9.30;3.40;;;;;;;-128.00;-1.00;-1.00;106862;1253;1012681;-73
2023/07/24 07:31:43;;;;;;;7.90;2.90;;;;;;;-128.00;-1.00;-1.00;106481;1254;1010602;-70
2023/07/24 07:34:30;;;;;;;8.30;3.50;;;;;;;-128.00;-1.00;-1.00;106494;1254;1011133;-73
2023/07/24 07:37:17;;;;;;;8.80;3.70;;;;;;;-128.00;-1.00;-1.00;106486;1254;1012635;-74
2023/07/24 07:40:06;;;;;;;8.70;3.40;;;;;;;-128.00;-1.00;-1.00;106759;1254;1012345;-72
2023/07/24 07:42:54;;;;;;;8.00;3.10;;;;;;;-128.00;-1.00;-1.00;106750;1253;1012758;-74
2023/07/24 07:45:41;;;;;;;9.20;3.50;;;;;;;-128.00;-1.00;-1.00;106728;1253;1009647;-69
2023/07/24 07:48:27;;;;;;;8.30;3.30;;;;;;;-128.00;-1.00;-1.00;106835;1253;1011783;-69
2023/07/24 07:51:15;;;;;;;7.30;2.60;;;;;;;-128.00;-1.00;-1.00;106441;1254;1013112;-70
2023/07/24 07:54:01;;;;;;;8.40;3.20;;;;;;;-128.00;-1.00;-1.00;106718;1253;1012225;-71
2023/07/24 07:56:52;;;;;;;9.00;3.00;;;;;;;-128.00;-1.00;-1.00;106680;1254;1013669;-70
2023/07/24 07:59:39;;;;;;;8.80;2.80;;;;;;;-128.00;-1.00;-1.00;106775;1253;1009773;-73
2023/07/24 08:02:26;;;;;;;8.50;3.40;;;;;;;-128.00;-1.00;-1.00;106821;1253;1011599;-69
2023/07/24 08:05:13;;;;;;;9.40;2.70;;;;;;;-128.00;-1.00;-1.00;106531;1253;1013321;-68
2023/07/24 08:08:06;;;;;;;10.10;3.10;;;;;;;-128.00;-1.00;-1.00;106560;1253;1012416;-69
2023/07/24 08:10:53;;;;;;;9.80;2.90;;;;;;;-128.00;-1.00;-1.00;106571;1253;1013095;-68
2023/07/24 08:13:40;;;;;;;7.90;2.70;;;;;;;-128.00;-1.00;-1.00;106651;1253;1009213;-73
2023/07/24 08:16:26;;;;;;;8.60;3.00;;;;;;;-128.00;-1.00;-1.00;106657;1253;1010962;-68
2023/07/24 08:19:13;;;;;;;6.80;2.70;;;;;;;-128.00;-1.00;-1.00;106859;1254;1012484;-68
2023/07/24 08:22:00;;;;;;;7.90;2.70;;;;;;;-128.00;-1.00;-1.00;106626;1253;1011534;-68
2023/07/24 08:24:51;;;;;;;8.00;3.70;;;;;;;-128.00;-1.00;-1.00;106528;1253;1013225;-70
2023/07/24 08:27:38;;;;;;;7.60;2.90;;;;;;;-128.00;-1.00;-1.00;106499;1253;1010160;-69
2023/07/24 08:30:46;;;;;;;7.60;3.20;;;;;;;-128.00;-1.00;-1.00;106875;1253;1011325;-70
2023/07/24 08:33:33;;;;;;;7.00;2.70;;;;;;;-128.00;-1.00;-1.00;106749;1253;1012549;-71
2023/07/24 08:36:19;;;;;;;6.30;2.50;;;;;;;-128.00;-1.00;-1.00;106453;1253;1013522;-69
2023/07/24 08:39:05;;;;;;;7.80;2.80;;;;;;;-128.00;-1.00;-1.00;106698;1252;1013579;-70
2023/07/24 08:41:52;;;;;;;7.80;2.60;;;;;;;-128.00;-1.00;-1.00;106669;1253;1010246;-67
2023/07/24 08:44:39;;;;;;;9.30;2.80;;;;;;;-128.00;-1.00;-1.00;106603;1252;1011675;-69
2023/07/24 08:47:26;;;;;;;7.80;3.00;;;;;;;-128.00;-1.00;-1.00;106543;1253;1012322;-71
2023/07/24 08:50:17;;;;;;;7.80;2.60;;;;;;;-128.00;-1.00;-1.00;106791;1257;1012697;-71
2023/07/24 08:53:03;;;;;;;6.70;2.30;;;;;;;-128.00;-1.00;-1.00;106823;1253;1013616;-69
2023/07/24 08:55:52;;;;;;;7.30;2.90;;;;;;;-128.00;-1.00;-1.00;106668;1252;1009944;-72
2023/07/24 08:58:39;;;;;;;6.60;2.10;;;;;;;-128.00;-1.00;-1.00;106830;1253;1010855;-76
2023/07/24 09:01:26;;;;;;;6.60;2.30;;;;;;;-128.00;-1.00;-1.00;106586;1253;1012847;-71
2023/07/24 09:04:13;;;;;;;8.10;2.40;;;;;;;-128.00;-1.00;-1.00;106661;1253;1012929;-70
2023/07/24 09:07:00;;;;;;;8.30;2.80;;;;;;;-128.00;-1.00;-1.00;106512;1254;1013335;-75
2023/07/24 09:09:50;;;;;;;6.70;2.50;;;;;;;-128.00;-1.00;-1.00;106636;1254;1009457;-76
2023/07/24 09:12:38;;;;;;;6.40;2.10;;;;;;;-128.00;-1.00;-1.00;106500;1253;1011558;-72
2023/07/24 09:15:43;;;;;;;6.40;2.40;;;;;;;-128.00;-1.00;-1.00;106620;1253;1012104;-74
2023/07/24 09:18:43;;;;;;;6.00;2.30;;;;;;;-128.00;-1.00;-1.00;106593;1254;1011968;-75
2023/07/24 09:21:32;;;;;;;6.40;2.20;;;;;;;-128.00;-1.00;-1.00;106527;1254;1011972;-69
2023/07/24 09:24:19;;;;;;;6.80;2.00;;;;;;;-128.00;-1.00;-1.00;106586;1254;1010709;-67
2023/07/24 09:27:07;;;;;;;6.90;2.00;;;;;;;-128.00;-1.00;-1.00;106656;1253;1010436;-73
2023/07/24 09:29:56;;;;;;;10.30;2.30;;;;;;;-128.00;-1.00;-1.00;106622;1253;1012404;-70
2023/07/24 09:32:44;;;;;;;6.30;2.10;;;;;;;-128.00;-1.00;-1.00;106457;1254;1011758;-69
2023/07/24 09:35:31;;;;;;;7.10;2.30;;;;;;;-128.00;-1.00;-1.00;106400;1254;1013012;-71
2023/07/24 09:38:21;;;;;;;7.00;2.00;;;;;;;-128.00;-1.00;-1.00;106546;1254;1010486;-74
2023/07/24 09:41:09;;;;;;;5.90;2.10;;;;;;;-128.00;-1.00;-1.00;106515;1254;1011330;-73
2023/07/24 09:43:59;;;;;;;6.10;1.90;;;;;;;-128.00;-1.00;-1.00;106481;1254;1012491;-71
2023/07/24 09:46:46;;;;;;;6.20;2.20;;;;;;;-128.00;-1.00;-1.00;106462;1259;1012039;-71
2023/07/24 09:49:53;;;;;;;6.70;2.20;;;;;;;-128.00;-1.00;-1.00;106619;1254;1012276;-73
2023/07/24 09:52:41;;;;;;;6.40;2.00;;;;;;;-128.00;-1.00;-1.00;106539;1253;1010047;-70
2023/07/24 09:55:38;;;;;;;7.60;2.20;;;;;;;-128.00;-1.00;-1.00;106504;1253;1010957;-72
2023/07/24 09:58:26;;;;;;;5.90;2.20;;;;;;;-128.00;-1.00;-1.00;106521;1253;1012625;-71
2023/07/24 10:01:12;;;;;;;6.20;2.60;;;;;;;-128.00;-1.00;-1.00;106542;1252;1012360;-73
2023/07/24 10:04:04;;;;;;;7.60;2.70;;;;;;;-128.00;-1.00;-1.00;106797;1254;1012095;-73
2023/07/24 10:06:51;;;;;;;11.80;2.90;;;;;;;-128.00;-1.00;-1.00;106623;1253;1010527;-72
2023/07/24 10:09:39;;;;;;;7.30;3.10;;;;;;;-128.00;-1.00;-1.00;106609;1253;1011124;-72
2023/07/24 10:12:27;;;;;;;8.50;3.00;;;;;;;-128.00;-1.00;-1.00;106823;1253;1012085;-71
2023/07/24 10:15:16;;;;;;;7.60;2.70;;;;;;;-128.00;-1.00;-1.00;106712;1253;1012879;-72
2023/07/24 10:18:07;;;;;;;6.60;2.50;;;;;;;-128.00;-1.00;-1.00;106132;1258;1012827;-73
2023/07/24 10:21:10;;;;;;;6.90;2.50;;;;;;;-128.00;-1.00;-1.00;106252;1259;1009123;-72
2023/07/24 10:24:00;;;;;;;8.30;2.70;;;;;;;-128.00;-1.00;-1.00;106277;1259;1011892;-71
2023/07/24 10:26:46;;;;;;;6.50;2.50;;;;;;;-128.00;-1.00;-1.00;106284;1259;1012876;-75
2023/07/24 10:29:36;;;;;;;7.80;2.80;;;;;;;-128.00;-1.00;-1.00;106329;1258;1012867;-73
2023/07/24 10:32:23;;;;;;;6.30;2.40;;;;;;;-128.00;-1.00;-1.00;106339;1258;1013710;-73
2023/07/24 10:35:10;;;;;;;8.00;2.90;;;;;;;-128.00;-1.00;-1.00;106318;1258;1009803;-75
2023/07/24 10:38:02;;;;;;;8.70;2.80;;;;;;;-128.00;-1.00;-1.00;106412;1258;1010512;-73
2023/07/24 10:40:48;;;;;;;7.70;2.70;;;;;;;-128.00;-1.00;-1.00;106368;1258;1012373;-71
2023/07/24 10:43:47;;;;;;;6.40;2.10;;;;;;;-128.00;-1.00;-1.00;106430;1259;1012285;-71
2023/07/24 10:46:42;;;;;;;7.20;2.30;;;;;;;-128.00;-1.00;-1.00;106419;1258;1013330;-75
2023/07/24 10:49:28;;;;;;;7.50;2.60;;;;;;;-128.00;-1.00;-1.00;106469;1254;1010776;-71
2023/07/24 10:52:15;;;;;;;8.60;2.70;;;;;;;-128.00;-1.00;-1.00;106718;1253;1010878;-72
2023/07/24 10:55:04;;;;;;;6.60;2.20;;;;;;;-128.00;-1.00;-1.00;106555;1254;1013506;-72
2023/07/24 10:57:54;;;;;;;6.80;2.10;;;;;;;-128.00;-1.00;-1.00;106723;1252;1012853;-71
2023/07/24 11:00:42;;;;;;;6.70;2.70;;;;;;;-128.00;-1.00;-1.00;106573;1253;1013583;-70
2023/07/24 11:03:29;;;;;;;6.60;2.50;;;;;;;-128.00;-1.00;-1.00;106652;1253;1009662;-73
2023/07/24 11:06:23;;;;;;;5.90;2.20;;;;;;;-128.00;-1.00;-1.00;106554;1253;1010899;-69
2023/07/24 11:09:10;;;;;;;7.10;2.10;;;;;;;-128.00;-1.00;-1.00;106729;1253;1012335;-77
2023/07/24 11:11:59;;;;;;;6.60;2.20;;;;;;;-128.00;-1.00;-1.00;106709;1256;1012171;-76
2023/07/24 11:14:55;;;;;;;7.20;2.70;;;;;;;-128.00;-1.00;-1.00;106658;1253;1012916;-78
2023/07/24 11:17:43;;;;;;;9.70;2.90;;;;;;;-128.00;-1.00;-1.00;106500;1253;1009971;-78
2023/07/24 11:20:30;;;;;;;7.90;2.40;;;;;;;-128.00;-1.00;-1.00;106541;1253;1011208;-72
2023/07/24 11:23:17;;;;;;;6.50;2.40;;;;;;;-128.00;-1.00;-1.00;106541;1253;1013109;-72
2023/07/24 11:26:05;;;;;;;6.70;2.20;;;;;;;-128.00;-1.00;-1.00;106691;1256;1011981;-72
2023/07/24 11:28:53;;;;;;;6.70;2.40;;;;;;;-128.00;-1.00;-1.00;106540;1253;1013286;-74
2023/07/24 11:31:40;;;;;;;7.10;2.70;;;;;;;-128.00;-1.00;-1.00;106751;1256;1010195;-71
2023/07/24 11:34:27;;;;;;;6.40;2.50;;;;;;;-128.00;-1.00;-1.00;106504;1253;1011027;-72
2023/07/24 11:37:15;;;;;;;9.60;2.70;;;;;;;-128.00;-1.00;-1.00;106769;1253;1012513;-75
2023/07/24 11:40:09;;;;;;;8.00;2.40;;;;;;;-128.00;-1.00;-1.00;106735;1253;1012276;-73
2023/07/24 11:42:55;;;;;;;6.30;2.50;;;;;;;-128.00;-1.00;-1.00;106492;1253;1012960;-74
2023/07/24 11:45:44;;;;;;;7.10;3.00;;;;;;;-128.00;-1.00;-1.00;106740;1253;1010011;-74
2023/07/24 11:48:31;;;;;;;7.40;2.80;;;;;;;-128.00;-1.00;-1.00;106683;1253;1011000;-72
2023/07/24 11:51:20;;;;;;;7.10;2.70;;;;;;;-128.00;-1.00;-1.00;106709;1253;1012635;-72
2023/07/24 11:54:11;;;;;;;7.40;2.40;;;;;;;-128.00;-1.00;-1.00;106561;1253;1012270;-75
2023/07/24 11:56:59;;;;;;;7.00;2.80;;;;;;;-128.00;-1.00;-1.00;106808;1253;1012458;-73
2023/07/24 11:59:46;;;;;;;7.00;2.60;;;;;;;-128.00;-1.00;-1.00;106682;1256;1009701;-72
2023/07/24 12:02:33;;;;;;;7.80;2.40;;;;;;;-128.00;-1.00;-1.00;106709;1253;1011111;-70
2023/07/24 12:05:21;;;;;;;7.80;2.70;;;;;;;-128.00;-1.00;-1.00;106756;1253;1012838;-72
2023/07/24 12:08:09;;;;;;;8.50;2.60;;;;;;;-128.00;-1.00;-1.00;106834;1253;1012380;-68
2023/07/24 12:11:03;;;;;;;8.30;2.40;;;;;;;-128.00;-1.00;-1.00;106659;1253;1013148;-71
2023/07/24 12:13:50;;;;;;;6.80;2.70;;;;;;;-128.00;-1.00;-1.00;106529;1253;1009340;-71
2023/07/24 12:16:41;;;;;;;10.00;2.90;;;;;;;-128.00;-1.00;-1.00;106418;1253;1011503;-71
2023/07/24 12:19:28;;;;;;;7.20;2.80;;;;;;;-128.00;-1.00;-1.00;106464;1253;1012721;-70
2023/07/24 12:22:18;;;;;;;7.40;2.50;;;;;;;-128.00;-1.00;-1.00;106662;1253;1012507;-71
2023/07/24 12:25:08;;;;;;;7.30;2.50;;;;;;;-128.00;-1.00;-1.00;106617;1253;1013105;-71
2023/07/24 12:27:55;;;;;;;7.60;2.70;;;;;;;-128.00;-1.00;-1.00;106492;1254;1010275;-71
2023/07/24 12:30:42;;;;;;;8.40;2.80;;;;;;;-128.00;-1.00;-1.00;106660;1253;1011247;-70
2023/07/24 12:33:30;;;;;;;8.60;2.60;;;;;;;-128.00;-1.00;-1.00;106783;1253;1012659;-70
2023/07/24 12:36:17;;;;;;;7.00;2.70;;;;;;;-128.00;-1.00;-1.00;106821;1253;1012660;-69
2023/07/24 12:39:04;;;;;;;7.00;2.60;;;;;;;-128.00;-1.00;-1.00;106690;1253;1012783;-71
2023/07/24 12:41:51;;;;;;;6.90;2.70;;;;;;;-128.00;-1.00;-1.00;106530;1253;1009867;-70
2023/07/24 12:44:38;;;;;;;8.40;3.00;;;;;;;-128.00;-1.00;-1.00;106542;1253;1010781;-72
2023/07/24 12:47:24;;;;;;;7.80;2.80;;;;;;;-128.00;-1.00;-1.00;106722;1253;1012714;-70
2023/07/24 12:50:11;;;;;;;9.40;2.60;;;;;;;-128.00;-1.00;-1.00;106556;1252;1012388;-71